createdAt,value
2022-08-03T00:00:32.524Z,98386.88
2022-08-03T00:02:59.872Z,98385.56
2022-08-03T00:05:27.224Z,98394.41
2022-08-03T00:07:55.152Z,98387.81
2022-08-03T00:10:23.479Z,98380.31
2022-08-03T00:12:51.081Z,98387.03
2022-08-03T00:15:18.628Z,98383.28
2022-08-03T00:17:52.618Z,98376.69
2022-08-03T00:20:22.569Z,98377.59
2022-08-03T00:22:51.478Z,98377.34
2022-08-03T00:25:19.416Z,98378.63
2022-08-03T00:27:48.264Z,98384.31
2022-08-03T00:30:17.003Z,98382.38
2022-08-03T00:32:45.583Z,98372.44
2022-08-03T00:35:25.134Z,98376.25
2022-08-03T00:38:00.757Z,98381.56
2022-08-03T00:40:28.575Z,98384.66
2022-08-03T00:43:04.584Z,98387.09
2022-08-03T00:45:42.529Z,98395.44
2022-08-03T00:48:19.786Z,98390.72
2022-08-03T00:51:01.600Z,98390.41
2022-08-03T00:53:29.443Z,98389.03
2022-08-03T00:55:57.036Z,98391.00
2022-08-03T00:58:24.502Z,98380.22
2022-08-03T01:00:52.029Z,98375.50
2022-08-03T01:03:19.392Z,98371.91
2022-08-03T01:06:04.795Z,98370.25
2022-08-03T01:09:07.989Z,98371.34
2022-08-03T01:12:11.801Z,98376.06
2022-08-03T01:15:31.712Z,98378.28
2022-08-03T01:19:12.813Z,98379.91
2022-08-03T01:22:14.682Z,98372.19
2022-08-03T01:25:26.968Z,98371.13
2022-08-03T01:29:05.931Z,98373.03
2022-08-03T01:32:54.594Z,98368.34
2022-08-03T01:35:17.117Z,98370.00
2022-08-03T01:38:07.118Z,98361.44
2022-08-03T01:40:36.741Z,98363.63
2022-08-03T01:43:08.780Z,98363.38
2022-08-03T01:45:37.731Z,98370.56
2022-08-03T01:48:07.590Z,98372.22
2022-08-03T01:50:35.452Z,98376.06
2022-08-03T01:53:03.602Z,98365.28
2022-08-03T01:55:33.287Z,98376.88
2022-08-03T01:58:06.823Z,98371.91
2022-08-03T02:00:37.884Z,98366.94
2022-08-03T02:03:07.850Z,98372.19
2022-08-03T02:05:36.411Z,98355.88
2022-08-03T02:08:09.199Z,98370.25
2022-08-03T02:10:37.705Z,98372.72
2022-08-03T02:13:09.290Z,98360.00
2022-08-03T02:15:39.247Z,98358.09
2022-08-03T02:18:11.002Z,98355.59
2022-08-03T02:20:44.244Z,98363.59
2022-08-03T02:23:11.963Z,98355.56
2022-08-03T02:25:48.207Z,98365.53
2022-08-03T02:28:24.833Z,98354.47
2022-08-03T02:30:56.006Z,98374.91
2022-08-03T02:33:42.460Z,98366.06
2022-08-03T02:36:14.505Z,98349.50
2022-08-03T02:38:45.468Z,98346.72
2022-08-03T02:41:21.247Z,98355.75
2022-08-03T02:44:06.391Z,98350.81
2022-08-03T02:46:44.540Z,98353.81
2022-08-03T02:49:40.552Z,98352.72
2022-08-03T02:52:11.355Z,98351.97
2022-08-03T02:54:46.646Z,98351.97
2022-08-03T02:57:15.262Z,98351.13
2022-08-03T02:59:44.221Z,98358.22
2022-08-03T03:02:12.633Z,98354.38
2022-08-03T03:04:56.198Z,98355.50
2022-08-03T03:07:29.454Z,98355.44
2022-08-03T03:10:03.227Z,98350.47
2022-08-03T03:12:34.306Z,98352.91
2022-08-03T03:15:01.629Z,98345.75
2022-08-03T03:17:31.055Z,98345.81
2022-08-03T03:19:59.249Z,98355.97
2022-08-03T03:22:28.162Z,98344.09
2022-08-03T03:24:56.020Z,98349.88
2022-08-03T03:27:24.751Z,98358.38
2022-08-03T03:29:55.016Z,98349.34
2022-08-03T03:32:22.564Z,98364.66
2022-08-03T03:34:50.505Z,98348.97
2022-08-03T03:37:18.478Z,98346.81
2022-08-03T03:39:45.812Z,98345.97
2022-08-03T03:42:13.787Z,98358.31
2022-08-03T03:44:41.586Z,98357.25
2022-08-03T03:47:08.982Z,98355.81
2022-08-03T03:49:37.330Z,98357.19
2022-08-03T03:52:05.178Z,98367.41
2022-08-03T03:54:45.639Z,98363.56
2022-08-03T03:57:13.920Z,98360.47
2022-08-03T03:59:42.592Z,98367.50
2022-08-03T04:02:12.532Z,98366.81
2022-08-03T04:04:58.823Z,98370.81
2022-08-03T04:07:46.874Z,98374.00
2022-08-03T04:10:56.592Z,98366.47
2022-08-03T04:13:25.410Z,98367.91
2022-08-03T04:15:54.439Z,98369.03
2022-08-03T04:18:22.713Z,98363.53
2022-08-03T04:20:51.985Z,98362.94
2022-08-03T04:23:25.156Z,98371.94
2022-08-03T04:25:55.695Z,98367.81
2022-08-03T04:28:31.426Z,98370.41
2022-08-03T04:31:01.616Z,98372.34
2022-08-03T04:33:33.443Z,98381.00
2022-08-03T04:36:09.290Z,98377.19
2022-08-03T04:41:30.440Z,98370.66
2022-08-03T04:44:00.779Z,98375.06
2022-08-03T04:46:35.732Z,98380.03
2022-08-03T04:49:03.265Z,98387.97
2022-08-03T04:51:31.523Z,98382.13
2022-08-03T04:53:59.530Z,98381.50
2022-08-03T04:56:26.988Z,98379.88
2022-08-03T04:58:56.097Z,98384.59
2022-08-03T05:01:23.518Z,98385.53
2022-08-03T05:03:51.666Z,98381.72
2022-08-03T05:06:18.985Z,98388.81
2022-08-03T05:08:50.883Z,98392.06
2022-08-03T05:11:18.862Z,98393.53
2022-08-03T05:13:46.900Z,98397.25
2022-08-03T05:16:15.244Z,98390.78
2022-08-03T05:18:44.165Z,98396.59
2022-08-03T05:21:16.929Z,98390.22
2022-08-03T05:23:45.348Z,98380.94
2022-08-03T05:26:12.908Z,98391.09
2022-08-03T05:28:40.669Z,98386.38
2022-08-03T05:31:19.847Z,98391.09
2022-08-03T05:33:48.911Z,98400.50
2022-08-03T05:36:16.471Z,98404.59
2022-08-03T05:38:43.782Z,98397.78
2022-08-03T05:41:21.625Z,98393.91
2022-08-03T05:43:55.356Z,98396.22
2022-08-03T05:46:23.887Z,98396.75
2022-08-03T05:48:51.484Z,98407.38
2022-08-03T05:51:19.112Z,98393.69
2022-08-03T05:53:46.731Z,98406.72
2022-08-03T05:56:16.220Z,98392.69
2022-08-03T05:58:47.473Z,98398.22
2022-08-03T06:01:21.812Z,98403.50
2022-08-03T06:03:51.065Z,98395.19
2022-08-03T06:06:18.855Z,98402.41
2022-08-03T06:08:46.948Z,98394.75
2022-08-03T06:11:15.253Z,98393.56
2022-08-03T06:13:43.881Z,98400.53
2022-08-03T06:16:11.531Z,98401.66
2022-08-03T06:18:40.447Z,98393.66
2022-08-03T06:21:15.562Z,98393.97
2022-08-03T06:23:54.618Z,98392.31
2022-08-03T06:26:26.979Z,98394.00
2022-08-03T06:28:55.439Z,98385.44
2022-08-03T06:31:33.120Z,98377.69
2022-08-03T06:34:34.351Z,98386.28
2022-08-03T06:36:58.580Z,98382.41
2022-08-03T06:39:29.630Z,98387.13
2022-08-03T06:41:57.968Z,98381.59
2022-08-03T06:44:25.300Z,98391.56
2022-08-03T06:46:53.842Z,98394.63
2022-08-03T06:49:24.602Z,98390.75
2022-08-03T06:52:05.545Z,98391.03
2022-08-03T06:54:34.506Z,98395.44
2022-08-03T06:57:02.712Z,98389.63
2022-08-03T07:00:09.847Z,98390.19
2022-08-03T07:02:21.091Z,98391.53
2022-08-03T07:04:49.628Z,98381.84
2022-08-03T07:07:17.812Z,98388.47
2022-08-03T07:09:56.434Z,98395.41
2022-08-03T07:12:26.364Z,98401.47
2022-08-03T07:14:59.771Z,98390.41
2022-08-03T07:17:30.898Z,98389.88
2022-08-03T07:19:58.914Z,98389.53
2022-08-03T07:22:26.803Z,98392.63
2022-08-03T07:24:54.427Z,98395.88
2022-08-03T07:27:21.915Z,98395.91
2022-08-03T07:29:49.366Z,98399.16
2022-08-03T07:32:16.924Z,98396.72
2022-08-03T07:34:44.717Z,98401.34
2022-08-03T07:37:12.037Z,98404.44
2022-08-03T07:39:39.349Z,98395.22
2022-08-03T07:42:07.037Z,98396.88
2022-08-03T07:44:34.593Z,98391.50
2022-08-03T07:47:03.451Z,98395.78
2022-08-03T07:49:31.491Z,98387.88
2022-08-03T07:52:17.776Z,98390.34
2022-08-03T07:54:45.518Z,98388.47
2022-08-03T07:57:13.018Z,98383.66
2022-08-03T07:59:57.190Z,98392.47
2022-08-03T08:02:29.247Z,98397.13
2022-08-03T08:04:56.622Z,98388.81
2022-08-03T08:07:25.246Z,98383.28
2022-08-03T08:09:52.835Z,98386.78
2022-08-03T08:12:20.419Z,98385.28
2022-08-03T08:14:48.118Z,98388.63
2022-08-03T08:17:15.543Z,98377.88
2022-08-03T08:19:45.970Z,98374.22
2022-08-03T08:22:30.231Z,98383.28
2022-08-03T08:24:59.779Z,98372.22
2022-08-03T08:28:30.318Z,98379.84
2022-08-03T08:30:21.881Z,98375.41
2022-08-03T08:32:51.516Z,98376.34
2022-08-03T08:35:19.593Z,98383.78
2022-08-03T08:37:51.192Z,98375.84
2022-08-03T08:40:22.947Z,98375.84
2022-08-03T08:42:58.571Z,98361.56
2022-08-03T08:45:28.038Z,98364.91
2022-08-03T08:48:01.085Z,98366.25
2022-08-03T08:50:31.901Z,98360.31
2022-08-03T08:53:03.835Z,98359.03
2022-08-03T08:55:58.749Z,98358.97
2022-08-03T08:58:23.408Z,98359.13
2022-08-03T09:00:51.704Z,98354.81
2022-08-03T09:03:22.512Z,98361.03
2022-08-03T09:06:00.896Z,98351.22
2022-08-03T09:08:34.433Z,98352.38
2022-08-03T09:11:01.898Z,98352.47
2022-08-03T09:13:30.443Z,98353.75
2022-08-03T09:16:21.404Z,98348.09
2022-08-03T09:18:54.540Z,98352.38
2022-08-03T09:21:33.637Z,98353.91
2022-08-03T09:24:08.456Z,98363.72
2022-08-03T09:26:49.457Z,98349.47
2022-08-03T09:29:22.234Z,98362.22
2022-08-03T09:31:49.572Z,98347.38
2022-08-03T09:34:18.451Z,98351.50
2022-08-03T09:36:52.317Z,98345.06
2022-08-03T09:39:40.626Z,98339.06
2022-08-03T09:42:23.731Z,98346.81
2022-08-03T09:44:53.089Z,98337.75
2022-08-03T09:47:37.435Z,98336.50
2022-08-03T09:50:12.998Z,98336.09
2022-08-03T09:52:50.057Z,98330.84
2022-08-03T09:56:33.292Z,98335.69
2022-08-03T09:58:14.305Z,98330.09
2022-08-03T10:01:06.351Z,98326.19
2022-08-03T10:04:03.027Z,98318.44
2022-08-03T10:06:29.061Z,98332.56
2022-08-03T10:09:11.242Z,98321.88
2022-08-03T10:11:42.445Z,98312.94
2022-08-03T10:14:23.414Z,98322.66
2022-08-03T10:16:50.827Z,98324.50
2022-08-03T10:19:18.353Z,98312.56
2022-08-03T10:21:56.910Z,98309.09
2022-08-03T10:24:29.486Z,98312.94
2022-08-03T10:27:08.233Z,98313.00
2022-08-03T10:29:42.868Z,98293.84
2022-08-03T10:32:32.476Z,98295.22
2022-08-03T10:35:21.063Z,98295.19
2022-08-03T10:38:09.065Z,98299.66
2022-08-03T10:40:57.166Z,98286.56
2022-08-03T10:43:59.279Z,98280.69
2022-08-03T10:46:27.648Z,98275.88
2022-08-03T10:48:56.765Z,98282.63
2022-08-03T10:51:26.506Z,98277.50
2022-08-03T10:53:55.238Z,98269.28
2022-08-03T10:56:54.401Z,98278.19
2022-08-03T10:59:46.881Z,98269.03
2022-08-03T11:02:15.730Z,98268.38
2022-08-03T11:04:45.202Z,98260.97
2022-08-03T11:07:26.327Z,98261.94
2022-08-03T11:09:56.566Z,98253.88
2022-08-03T11:12:31.452Z,98257.81
2022-08-03T11:15:09.388Z,98255.34
2022-08-03T11:17:46.646Z,98256.47
2022-08-03T11:20:53.730Z,98251.31
2022-08-03T11:24:03.421Z,98247.50
2022-08-03T11:26:34.687Z,98256.53
2022-08-03T11:29:30.386Z,98252.22
2022-08-03T11:31:58.137Z,98243.09
2022-08-03T11:34:26.002Z,98243.22
2022-08-03T11:37:30.135Z,98253.00
2022-08-03T11:40:02.417Z,98255.53
2022-08-03T11:42:36.544Z,98245.22
2022-08-03T11:45:08.986Z,98246.06
2022-08-03T11:47:50.736Z,98244.78
2022-08-03T11:50:20.069Z,98237.34
2022-08-03T11:52:49.472Z,98234.28
2022-08-03T11:55:22.090Z,98235.44
2022-08-03T11:59:17.274Z,98240.16
2022-08-03T12:00:38.590Z,98244.88
2022-08-03T12:03:12.652Z,98240.28
2022-08-03T12:05:53.629Z,98232.44
2022-08-03T12:08:28.046Z,98228.41
2022-08-03T12:11:00.080Z,98223.88
2022-08-03T12:14:44.636Z,98225.72
2022-08-03T12:16:28.826Z,98219.69
2022-08-03T12:19:09.328Z,98218.28
2022-08-03T12:21:57.373Z,98213.72
2022-08-03T12:24:29.534Z,98217.88
2022-08-03T12:27:00.076Z,98218.47
2022-08-03T12:29:28.030Z,98205.69
2022-08-03T12:31:55.887Z,98217.28
2022-08-03T12:34:24.006Z,98213.78
2022-08-03T12:36:56.748Z,98209.19
2022-08-03T12:39:30.853Z,98195.72
2022-08-03T12:41:59.379Z,98191.00
2022-08-03T12:44:36.702Z,98188.69
2022-08-03T12:47:07.630Z,98191.72
2022-08-03T12:49:54.030Z,98195.19
2022-08-03T12:52:23.262Z,98196.44
2022-08-03T12:55:01.401Z,98193.91
2022-08-03T12:57:42.895Z,98195.22
2022-08-03T13:00:28.651Z,98190.31
2022-08-03T13:05:57.685Z,98190.34
2022-08-03T13:08:25.956Z,98189.59
2022-08-03T13:10:53.988Z,98181.78
2022-08-03T13:13:39.731Z,98186.59
2022-08-03T13:16:07.065Z,98187.66
2022-08-03T13:18:34.447Z,98181.22
2022-08-03T13:21:02.316Z,98182.72
2022-08-03T13:23:29.885Z,98178.78
2022-08-03T13:25:57.261Z,98183.78
2022-08-03T13:28:24.660Z,98180.41
2022-08-03T13:30:54.174Z,98174.19
2022-08-03T13:33:21.662Z,98173.72
2022-08-03T13:35:48.988Z,98174.63
2022-08-03T13:38:17.264Z,98171.59
2022-08-03T13:40:44.760Z,98175.00
2022-08-03T13:43:13.603Z,98161.06
2022-08-03T13:45:42.190Z,98162.72
2022-08-03T13:48:10.925Z,98171.66
2022-08-03T13:50:42.823Z,98167.06
2022-08-03T13:53:10.575Z,98170.44
2022-08-03T13:55:38.006Z,98170.88
2022-08-03T13:58:07.957Z,98151.19
2022-08-03T14:00:35.551Z,98158.97
2022-08-03T14:03:13.734Z,98161.22
2022-08-03T14:05:43.847Z,98163.31
2022-08-03T14:08:13.638Z,98159.56
2022-08-03T14:10:44.947Z,98157.44
2022-08-03T14:13:17.707Z,98154.09
2022-08-03T14:15:49.842Z,98155.31
2022-08-03T14:18:28.925Z,98147.72
2022-08-03T14:21:06.636Z,98150.69
2022-08-03T14:23:37.869Z,98146.44
2022-08-03T14:26:10.518Z,98141.91
2022-08-03T14:28:40.062Z,98139.16
2022-08-03T14:31:15.244Z,98139.66
2022-08-03T14:33:55.137Z,98139.47
2022-08-03T14:36:22.432Z,98136.03
2022-08-03T14:38:49.857Z,98133.84
2022-08-03T14:41:20.029Z,98130.03
2022-08-03T14:44:01.405Z,98133.25
2022-08-03T14:46:31.094Z,98128.03
2022-08-03T14:50:33.159Z,98116.50
2022-08-03T14:51:51.603Z,98126.03
2022-08-03T14:54:22.428Z,98125.25
2022-08-03T14:56:49.759Z,98120.41
2022-08-03T14:59:17.079Z,98119.31
2022-08-03T15:02:03.313Z,98116.22
2022-08-03T15:04:31.983Z,98111.22
2022-08-03T15:06:59.309Z,98102.53
2022-08-03T15:09:28.624Z,98106.03
2022-08-03T15:11:55.954Z,98105.88
2022-08-03T15:14:32.474Z,98096.50
2022-08-03T15:17:02.294Z,98094.22
2022-08-03T15:20:05.565Z,98093.63
2022-08-03T15:22:20.536Z,98096.94
2022-08-03T15:24:52.581Z,98093.59
2022-08-03T15:27:20.125Z,98089.84
2022-08-03T15:30:09.550Z,98089.28
2022-08-03T15:32:35.275Z,98080.84
2022-08-03T15:35:02.666Z,98074.78
2022-08-03T15:37:29.980Z,98077.66
2022-08-03T15:39:58.812Z,98086.47
2022-08-03T15:42:30.737Z,98078.28
2022-08-03T15:44:58.680Z,98076.41
2022-08-03T15:47:26.963Z,98066.78
2022-08-03T15:49:54.485Z,98073.94
2022-08-03T15:52:21.981Z,98071.38
2022-08-03T15:54:49.380Z,98068.16
2022-08-03T15:57:16.684Z,98065.72
2022-08-03T15:59:44.073Z,98058.81
2022-08-03T16:02:11.529Z,98063.09
2022-08-03T16:04:38.888Z,98072.75
2022-08-03T16:07:06.404Z,98052.25
2022-08-03T16:09:42.127Z,98060.97
2022-08-03T16:12:15.849Z,98058.06
2022-08-03T16:14:52.878Z,98052.44
2022-08-03T16:17:22.560Z,98056.97
2022-08-03T16:19:54.106Z,98056.78
2022-08-03T16:22:24.462Z,98055.09
2022-08-03T16:24:55.642Z,98053.59
2022-08-03T16:28:00.360Z,98053.94
2022-08-03T16:30:16.714Z,98047.38
2022-08-03T16:32:47.449Z,98052.72
2022-08-03T16:35:19.230Z,98056.47
2022-08-03T16:37:50.679Z,98051.84
2022-08-03T16:40:25.148Z,98053.16
2022-08-03T16:42:53.439Z,98054.94
2022-08-03T16:45:20.769Z,98051.09
2022-08-03T16:47:48.297Z,98046.75
2022-08-03T16:50:30.489Z,98041.13
2022-08-03T16:52:57.904Z,98041.88
2022-08-03T16:55:48.750Z,98048.13
2022-08-03T16:58:15.091Z,98039.66
2022-08-03T17:00:43.107Z,98044.03
2022-08-03T17:03:18.765Z,98044.41
2022-08-03T17:05:50.183Z,98053.00
2022-08-03T17:08:26.347Z,98035.47
2022-08-03T17:10:56.221Z,98036.00
2022-08-03T17:13:38.902Z,98040.47
2022-08-03T17:16:11.918Z,98037.97
2022-08-03T17:18:57.519Z,98037.53
2022-08-03T17:21:35.428Z,98042.28
2022-08-03T17:24:45.050Z,98028.41
2022-08-03T17:28:51.235Z,98030.34
2022-08-03T17:30:19.093Z,98031.94
2022-08-03T17:32:56.842Z,98031.66
2022-08-03T17:35:34.592Z,98031.22
2022-08-03T17:38:11.899Z,98031.94
2022-08-03T17:40:43.079Z,98033.50
2022-08-03T17:44:13.284Z,98035.47
2022-08-03T17:46:07.216Z,98036.75
2022-08-03T17:48:41.126Z,98033.56
2022-08-03T17:51:31.398Z,98042.81
2022-08-03T17:55:57.370Z,98039.19
2022-08-03T17:58:08.293Z,98038.34
2022-08-03T18:00:59.681Z,98038.31
2022-08-03T18:03:58.405Z,98034.97
2022-08-03T18:06:36.364Z,98045.66
2022-08-03T18:10:02.572Z,98047.38
2022-08-03T18:12:05.173Z,98036.13
2022-08-03T18:14:57.671Z,98040.34
2022-08-03T18:18:01.833Z,98036.84
2022-08-03T18:20:32.145Z,98048.81
2022-08-03T18:23:07.009Z,98046.69
2022-08-03T18:25:42.903Z,98044.22
2022-08-03T18:28:14.521Z,98046.69
2022-08-03T18:30:53.080Z,98049.41
2022-08-03T18:34:16.918Z,98046.22
2022-08-03T18:36:17.980Z,98044.75
2022-08-03T18:38:49.132Z,98042.94
2022-08-03T18:41:21.963Z,98049.72
2022-08-03T18:44:08.221Z,98052.31
2022-08-03T18:51:09.753Z,98053.59
2022-08-03T18:54:06.480Z,98048.38
2022-08-03T18:56:54.441Z,98056.53
2022-08-03T18:59:52.841Z,98055.47
2022-08-03T19:02:48.700Z,98057.25
2022-08-03T19:05:24.671Z,98056.56
2022-08-03T19:08:47.871Z,98059.22
2022-08-03T19:12:13.189Z,98057.94
2022-08-03T19:14:44.243Z,98060.97
2022-08-03T19:17:14.081Z,98064.00
2022-08-03T19:19:52.284Z,98066.28
2022-08-03T19:22:23.043Z,98067.47
2022-08-03T19:24:52.876Z,98073.22
2022-08-03T19:27:27.017Z,98072.91
2022-08-03T19:30:03.036Z,98074.44
2022-08-03T19:32:35.158Z,98069.91
2022-08-03T19:35:10.109Z,98075.91
2022-08-03T19:37:46.540Z,98083.31
2022-08-03T19:40:13.880Z,98083.47
2022-08-03T19:42:46.835Z,98090.38
2022-08-03T19:46:04.863Z,98086.38
2022-08-03T19:48:26.060Z,98075.81
2022-08-03T19:50:56.808Z,98086.19
2022-08-03T19:53:35.362Z,98092.16
2022-08-03T19:56:07.025Z,98082.31
2022-08-03T19:58:35.417Z,98086.94
2022-08-03T20:01:18.934Z,98082.22
2022-08-03T20:03:49.752Z,98095.25
2022-08-03T20:06:23.125Z,98092.44
2022-08-03T20:08:51.833Z,98092.75
2022-08-03T20:11:20.463Z,98086.66
2022-08-03T20:13:59.130Z,98094.88
2022-08-03T20:16:27.225Z,98093.41
2022-08-03T20:18:54.588Z,98099.00
2022-08-03T20:21:27.234Z,98104.41
2022-08-03T20:24:23.080Z,98097.56
2022-08-03T20:26:59.377Z,98095.03
2022-08-03T20:30:07.250Z,98091.25
2022-08-03T20:32:35.685Z,98097.28
2022-08-03T20:35:03.105Z,98098.81
2022-08-03T20:37:37.909Z,98093.31
2022-08-03T20:40:07.212Z,98090.38
2022-08-03T20:42:34.555Z,98091.88
2022-08-03T20:45:05.395Z,98095.31
2022-08-03T20:47:50.660Z,98091.88
2022-08-03T20:50:18.441Z,98091.88
2022-08-03T20:52:50.601Z,98089.22
2022-08-03T20:55:39.106Z,98087.25
2022-08-03T20:58:07.689Z,98087.09
2022-08-03T21:00:35.045Z,98086.13
2022-08-03T21:03:02.561Z,98091.56
2022-08-03T21:05:51.208Z,98092.41
2022-08-03T21:08:20.954Z,98087.31
2022-08-03T21:10:49.366Z,98088.13
2022-08-03T21:13:09.603Z,98050.00
2022-08-03T21:13:45.195Z,98091.25
2022-08-03T21:16:15.321Z,98089.78
2022-08-03T21:18:57.924Z,98092.06
2022-08-03T21:21:32.589Z,98090.22
2022-08-03T21:24:03.528Z,98082.84
2022-08-03T21:26:34.323Z,98086.63
2022-08-03T21:29:02.453Z,98076.94
2022-08-03T21:31:30.024Z,98081.22
2022-08-03T21:34:05.274Z,98084.47
2022-08-03T21:36:37.934Z,98082.19
2022-08-03T21:39:10.069Z,98088.88
2022-08-03T21:41:41.352Z,98096.13
2022-08-03T21:44:09.162Z,98089.50
2022-08-03T21:46:43.130Z,98091.44
2022-08-03T21:50:04.710Z,98085.75
2022-08-03T21:52:07.218Z,98088.00
2022-08-03T21:54:58.272Z,98085.66
2022-08-03T21:57:27.981Z,98091.66
2022-08-03T22:00:14.973Z,98095.91
2022-08-03T22:02:53.185Z,98095.31
2022-08-03T22:05:42.361Z,98096.75
2022-08-03T22:08:13.686Z,98103.47
2022-08-03T22:10:45.011Z,98105.97
2022-08-03T22:13:20.594Z,98108.81
2022-08-03T22:16:05.438Z,98115.88
2022-08-03T22:18:32.918Z,98120.63
2022-08-03T22:21:02.168Z,98111.72
2022-08-03T22:23:30.842Z,98114.28
2022-08-03T22:26:03.436Z,98112.69
2022-08-03T22:28:31.924Z,98118.91
2022-08-03T22:31:00.105Z,98116.50
2022-08-03T22:33:50.113Z,98115.69
2022-08-03T22:36:22.814Z,98116.84
2022-08-03T22:38:53.458Z,98118.66
2022-08-03T22:41:21.568Z,98124.25
2022-08-03T22:43:49.714Z,98122.34
2022-08-03T22:46:23.440Z,98128.22
2022-08-03T22:48:51.701Z,98132.22
2022-08-03T22:51:21.010Z,98114.16
2022-08-03T22:53:49.211Z,98135.78
2022-08-03T22:56:16.547Z,98127.84
2022-08-03T22:58:43.891Z,98128.78
2022-08-03T23:01:18.524Z,98128.91
2022-08-03T23:04:02.069Z,98124.63
2022-08-03T23:06:40.485Z,98124.38
2022-08-03T23:09:12.668Z,98126.63
2022-08-03T23:11:45.960Z,98135.50
2022-08-03T23:14:20.490Z,98125.59
2022-08-03T23:16:50.280Z,98121.31
2022-08-03T23:19:25.045Z,98125.53
2022-08-03T23:22:03.134Z,98125.13
2022-08-03T23:24:38.919Z,98122.44
2022-08-03T23:27:09.161Z,98126.16
2022-08-03T23:29:42.200Z,98127.69
2022-08-03T23:32:12.853Z,98126.34
2022-08-03T23:35:00.617Z,98130.38
2022-08-03T23:37:28.239Z,98126.88
2022-08-03T23:39:56.993Z,98131.94
2022-08-03T23:42:25.436Z,98130.28
2022-08-03T23:45:05.394Z,98132.16
2022-08-03T23:47:46.413Z,98130.31
2022-08-03T23:50:15.448Z,98130.50
2022-08-03T23:53:11.717Z,98130.59
2022-08-03T23:56:11.938Z,98129.72
2022-08-03T23:59:14.075Z,98126.41
